Time;durP1;ratioP1;P1;durP2;ratioP2;P2;SDS_P1;SDS_P2;PMS_P1;PMS_P2;Temp;Humidity;BMP_temperature;BMP_pressure;BME280_temperature;BME280_humidity;BME280_pressure;Samples;Min_cycle;Max_cycle;Signal;HPM_P1;HPM_P2
2023/07/27 00:00:38;;;;;;;4.20;2.70;;;18.10;99.90;;;;;;5051465;28;20202;-46
2023/07/27 00:03:04;;;;;;;4.70;2.67;;;18.10;99.90;;;;;;5050752;28;20199;-46
2023/07/27 00:05:29;;;;;;;4.50;2.53;;;18.10;99.90;;;;;;5051607;28;20183;-46
2023/07/27 00:07:55;;;;;;;5.57;3.25;;;18.10;99.90;;;;;;5051112;28;20238;-47
2023/07/27 00:10:23;;;;;;;3.80;2.50;;;18.10;99.90;;;;;;5051383;28;20202;-48
2023/07/27 00:12:49;;;;;;;5.07;2.92;;;18.00;99.90;;;;;;5050957;28;20223;-47
2023/07/27 00:15:15;;;;;;;7.45;3.38;;;18.10;99.90;;;;;;5050942;28;20293;-49
2023/07/27 00:17:41;;;;;;;6.07;3.00;;;18.00;99.90;;;;;;5051048;28;20258;-48
2023/07/27 00:20:07;;;;;;;4.07;2.70;;;18.00;99.90;;;;;;5051051;28;20246;-47
2023/07/27 00:22:32;;;;;;;4.93;3.15;;;18.00;99.90;;;;;;5051458;28;20166;-48
2023/07/27 00:24:58;;;;;;;7.90;3.20;;;18.00;99.90;;;;;;5051367;28;20308;-48
2023/07/27 00:27:23;;;;;;;5.28;3.33;;;18.00;99.90;;;;;;5051184;28;20249;-47
2023/07/27 00:29:49;;;;;;;4.53;2.83;;;18.00;99.90;;;;;;5050957;28;20631;-47
2023/07/27 00:32:14;;;;;;;6.57;3.17;;;18.00;99.90;;;;;;5050883;28;20201;-47
2023/07/27 00:34:40;;;;;;;5.97;3.30;;;18.00;99.90;;;;;;5050833;28;20217;-47
2023/07/27 00:37:06;;;;;;;7.03;3.13;;;18.00;99.90;;;;;;5050832;28;20174;-47
2023/07/27 00:39:31;;;;;;;9.50;3.47;;;17.90;99.90;;;;;;5051544;28;20317;-47
2023/07/27 00:41:57;;;;;;;3.55;2.58;;;17.80;99.90;;;;;;5050809;28;20269;-48
2023/07/27 00:44:22;;;;;;;5.82;2.63;;;17.90;99.90;;;;;;5050808;28;20178;-49
2023/07/27 00:46:49;;;;;;;4.97;2.92;;;17.80;99.90;;;;;;5050757;28;20557;-47
2023/07/27 00:49:15;;;;;;;3.65;2.80;;;17.80;99.90;;;;;;5051673;28;20170;-48
2023/07/27 00:51:43;;;;;;;19.58;8.15;;;17.80;99.90;;;;;;5054379;28;20708;-46
2023/07/27 00:54:10;;;;;;;4.63;2.80;;;17.70;99.90;;;;;;5054230;28;20198;-47
2023/07/27 00:56:37;;;;;;;4.88;2.72;;;17.80;99.90;;;;;;5054159;28;20166;-47
2023/07/27 00:59:04;;;;;;;8.23;4.47;;;17.80;99.90;;;;;;5054193;28;20166;-47
2023/07/27 01:01:30;;;;;;;4.13;2.75;;;17.80;99.90;;;;;;5054544;28;20522;-46
2023/07/27 01:03:57;;;;;;;7.28;3.53;;;17.80;99.90;;;;;;5054045;28;20167;-48
2023/07/27 01:06:24;;;;;;;4.15;3.20;;;17.80;99.90;;;;;;5054084;28;20163;-46
2023/07/27 01:08:53;;;;;;;5.55;3.35;;;17.80;99.90;;;;;;5053999;28;20169;-47
2023/07/27 01:11:33;;;;;;;6.70;2.80;;;17.80;99.90;;;;;;5053796;28;20211;-47
2023/07/27 01:14:13;;;;;;;8.32;3.30;;;17.90;99.90;;;;;;5054343;28;20206;-48
2023/07/27 01:16:48;;;;;;;4.70;3.05;;;17.90;99.90;;;;;;5053913;28;20220;-47
2023/07/27 01:19:26;;;;;;;3.40;2.60;;;17.90;99.90;;;;;;5053846;28;20162;-48
2023/07/27 01:22:14;;;;;;;3.58;2.40;;;17.90;99.90;;;;;;5054079;28;20229;-47
2023/07/27 01:25:18;;;;;;;4.40;3.15;;;17.90;99.90;;;;;;5053809;28;20166;-47
2023/07/27 01:28:16;;;;;;;6.07;3.30;;;17.90;99.90;;;;;;5045863;28;20178;-48
2023/07/27 01:30:58;;;;;;;4.88;3.38;;;17.80;99.90;;;;;;5053675;28;20710;-47
2023/07/27 01:33:31;;;;;;;4.50;3.05;;;17.80;99.90;;;;;;5053452;28;20593;-51
2023/07/27 01:36:00;;;;;;;5.07;3.25;;;17.80;99.90;;;;;;5052652;28;20182;-48
2023/07/27 01:38:27;;;;;;;13.98;5.30;;;17.90;99.90;;;;;;5053637;28;20167;-48
2023/07/27 01:40:54;;;;;;;8.75;3.80;;;17.90;99.90;;;;;;5053353;28;20178;-48
2023/07/27 01:43:20;;;;;;;6.82;3.20;;;17.90;99.90;;;;;;5053331;28;20167;-46
2023/07/27 01:45:47;;;;;;;7.72;3.17;;;17.80;99.90;;;;;;5053214;28;20241;-47
2023/07/27 01:48:15;;;;;;;4.07;2.83;;;17.90;99.90;;;;;;5053342;28;20167;-48
2023/07/27 01:50:41;;;;;;;6.28;2.60;;;17.80;99.90;;;;;;5053171;28;20174;-48
2023/07/27 01:53:09;;;;;;;6.90;3.10;;;17.90;99.90;;;;;;5053264;28;20170;-48
2023/07/27 01:55:36;;;;;;;3.38;2.65;;;17.90;99.90;;;;;;5053120;28;20210;-47
2023/07/27 01:58:03;;;;;;;5.55;3.30;;;17.90;99.90;;;;;;5053607;28;20492;-51
2023/07/27 02:00:29;;;;;;;4.63;2.70;;;17.90;99.90;;;;;;5053102;28;20182;-48
2023/07/27 02:02:55;;;;;;;6.13;3.17;;;17.90;99.90;;;;;;5053008;28;20228;-47
2023/07/27 02:05:24;;;;;;;5.95;3.10;;;17.90;99.90;;;;;;5052961;28;20166;-48
2023/07/27 02:07:50;;;;;;;5.55;3.58;;;17.80;99.90;;;;;;5052924;28;20748;-48
2023/07/27 02:10:18;;;;;;;11.32;3.92;;;17.80;99.90;;;;;;5052869;28;20216;-48
2023/07/27 02:13:02;;;;;;;10.43;3.88;;;17.80;99.90;;;;;;5052673;28;20230;-49
2023/07/27 02:15:36;;;;;;;7.35;3.25;;;17.80;99.90;;;;;;5053087;28;20636;-47
2023/07/27 02:18:10;;;;;;;6.82;3.38;;;17.80;99.90;;;;;;5052704;28;20172;-47
2023/07/27 02:20:37;;;;;;;5.15;3.22;;;17.70;99.90;;;;;;5052762;28;20182;-48
2023/07/27 02:23:05;;;;;;;7.35;2.75;;;17.70;99.90;;;;;;5052647;28;20205;-48
2023/07/27 02:25:31;;;;;;;6.10;3.10;;;17.70;99.90;;;;;;5053043;28;20526;-47
2023/07/27 02:27:56;;;;;;;4.28;2.63;;;17.60;99.90;;;;;;5053133;28;20630;-47
2023/07/27 02:30:22;;;;;;;8.68;3.20;;;17.50;99.90;;;;;;5052369;28;20190;-50
2023/07/27 02:32:47;;;;;;;6.22;2.92;;;17.50;99.90;;;;;;5052719;28;20174;-48
2023/07/27 02:35:13;;;;;;;5.18;3.00;;;17.40;99.90;;;;;;5052234;28;20610;-50
2023/07/27 02:37:39;;;;;;;4.45;2.88;;;17.40;99.90;;;;;;5051661;28;20167;-48
2023/07/27 02:40:05;;;;;;;4.25;2.50;;;17.40;99.90;;;;;;5051821;28;20642;-47
2023/07/27 02:42:30;;;;;;;5.72;3.00;;;17.40;99.90;;;;;;5052596;28;20155;-50
2023/07/27 02:44:56;;;;;;;7.53;3.47;;;17.40;99.90;;;;;;5052237;28;20530;-49
2023/07/27 02:47:21;;;;;;;5.88;3.08;;;17.30;99.90;;;;;;5052288;28;20642;-48
2023/07/27 02:49:47;;;;;;;3.78;2.90;;;17.20;99.90;;;;;;5052350;28;20646;-47
2023/07/27 02:52:13;;;;;;;7.03;3.25;;;17.20;99.90;;;;;;5052095;28;20688;-48
2023/07/27 02:54:38;;;;;;;5.60;2.80;;;17.30;99.90;;;;;;5051982;28;20217;-47
2023/07/27 02:57:04;;;;;;;6.32;3.45;;;17.20;99.90;;;;;;5051870;28;20304;-48
2023/07/27 02:59:30;;;;;;;10.10;3.88;;;17.20;99.90;;;;;;5052458;28;20254;-47
2023/07/27 03:01:55;;;;;;;7.90;3.65;;;17.10;99.90;;;;;;5051871;28;20174;-48
2023/07/27 03:04:21;;;;;;;5.75;3.30;;;17.10;99.90;;;;;;5051862;28;20166;-47
2023/07/27 03:06:46;;;;;;;8.40;5.10;;;17.10;99.90;;;;;;5051853;28;20614;-47
2023/07/27 03:09:12;;;;;;;6.60;3.92;;;16.90;99.90;;;;;;5051850;28;20170;-48
2023/07/27 03:11:37;;;;;;;8.82;4.53;;;16.90;99.90;;;;;;5050887;28;20298;-47
2023/07/27 03:14:04;;;;;;;4.15;3.72;;;16.90;99.90;;;;;;5051696;28;20285;-47
2023/07/27 03:16:30;;;;;;;5.38;3.75;;;16.90;99.90;;;;;;5052141;28;20296;-48
2023/07/27 03:18:56;;;;;;;6.43;3.90;;;16.80;99.90;;;;;;5051711;28;20638;-47
2023/07/27 03:21:22;;;;;;;8.85;3.47;;;16.80;99.90;;;;;;5051799;28;20179;-47
2023/07/27 03:23:48;;;;;;;6.47;3.63;;;16.80;99.90;;;;;;5051576;28;20166;-47
2023/07/27 03:26:15;;;;;;;8.52;4.15;;;16.70;99.90;;;;;;5051789;28;20273;-47
2023/07/27 03:28:41;;;;;;;5.90;3.25;;;16.70;99.90;;;;;;5051562;28;20527;-47
2023/07/27 03:31:18;;;;;;;5.72;3.83;;;16.60;99.90;;;;;;5051804;28;20253;-47
2023/07/27 03:33:43;;;;;;;8.98;4.32;;;16.60;99.90;;;;;;5050562;28;20230;-47
2023/07/27 03:36:09;;;;;;;4.85;3.88;;;16.50;99.90;;;;;;5051153;28;20204;-47
2023/07/27 03:38:35;;;;;;;6.97;3.75;;;16.50;99.90;;;;;;5051444;28;20193;-47
2023/07/27 03:41:01;;;;;;;7.25;5.07;;;16.40;99.90;;;;;;5051510;28;20163;-48
2023/07/27 03:43:26;;;;;;;5.72;3.45;;;16.40;99.90;;;;;;5051643;28;20220;-47
2023/07/27 03:45:53;;;;;;;7.43;3.85;;;16.50;99.90;;;;;;5051358;28;20189;-47
2023/07/27 03:48:18;;;;;;;9.57;3.50;;;16.40;99.90;;;;;;5051111;28;20250;-47
2023/07/27 03:50:44;;;;;;;6.30;3.83;;;16.50;99.90;;;;;;5051247;28;20262;-47
2023/07/27 03:53:09;;;;;;;5.00;3.00;;;16.40;99.90;;;;;;5051301;28;20171;-47
2023/07/27 03:55:35;;;;;;;5.57;3.72;;;16.40;99.90;;;;;;5050837;28;20217;-47
2023/07/27 03:58:01;;;;;;;5.78;3.80;;;16.40;99.90;;;;;;5051572;28;20204;-48
2023/07/27 04:00:26;;;;;;;8.30;4.18;;;16.40;99.90;;;;;;5051621;28;20174;-48
2023/07/27 04:02:52;;;;;;;6.80;3.20;;;16.40;99.90;;;;;;5051149;28;20202;-47
2023/07/27 04:05:17;;;;;;;11.02;5.78;;;16.30;99.90;;;;;;5051366;28;20194;-48
2023/07/27 04:07:43;;;;;;;7.38;3.63;;;16.40;99.90;;;;;;5051160;28;20579;-48
2023/07/27 04:10:09;;;;;;;7.18;4.10;;;16.30;99.90;;;;;;5051282;28;20244;-47
2023/07/27 04:12:34;;;;;;;8.10;3.60;;;16.20;99.90;;;;;;5050922;28;20739;-47
2023/07/27 04:15:00;;;;;;;5.00;3.50;;;16.40;99.90;;;;;;5051481;28;20596;-48
2023/07/27 04:17:26;;;;;;;11.70;5.47;;;16.30;99.90;;;;;;5051669;28;20175;-47
2023/07/27 04:19:51;;;;;;;6.10;3.80;;;16.30;99.90;;;;;;5049671;28;20224;-48
2023/07/27 04:22:17;;;;;;;6.38;3.88;;;16.30;99.90;;;;;;5051246;28;20254;-48
2023/07/27 04:24:44;;;;;;;5.82;3.65;;;16.20;99.90;;;;;;5054244;28;20528;-46
2023/07/27 04:27:11;;;;;;;6.72;3.40;;;16.30;99.90;;;;;;5054308;28;20745;-47
2023/07/27 04:29:36;;;;;;;9.35;3.95;;;16.30;99.90;;;;;;5054627;28;20223;-48
2023/07/27 04:32:02;;;;;;;6.03;3.40;;;16.30;99.90;;;;;;5054042;28;20253;-47
2023/07/27 04:34:28;;;;;;;6.40;3.78;;;16.30;99.90;;;;;;5054328;28;20279;-47
2023/07/27 04:36:53;;;;;;;3.95;3.10;;;16.30;99.90;;;;;;5053990;28;20627;-48
2023/07/27 04:39:19;;;;;;;7.05;3.60;;;16.30;99.90;;;;;;5053894;28;20276;-49
2023/07/27 04:41:44;;;;;;;5.85;3.13;;;16.20;99.90;;;;;;5053825;28;20224;-47
2023/07/27 04:44:10;;;;;;;4.72;3.65;;;16.10;99.90;;;;;;5053887;28;20241;-47
2023/07/27 04:46:36;;;;;;;5.50;3.50;;;16.20;99.90;;;;;;5054298;28;20626;-47
2023/07/27 04:49:01;;;;;;;6.53;4.00;;;16.20;99.90;;;;;;5054416;28;20170;-47
2023/07/27 04:51:27;;;;;;;3.88;3.28;;;16.20;99.90;;;;;;5054680;28;20225;-47
2023/07/27 04:53:52;;;;;;;5.65;4.03;;;16.20;99.90;;;;;;5054206;28;20205;-47
2023/07/27 04:56:18;;;;;;;6.20;3.80;;;16.10;99.90;;;;;;5054209;28;20240;-47
2023/07/27 04:58:43;;;;;;;8.27;4.90;;;16.10;99.90;;;;;;5054248;28;20241;-47
2023/07/27 05:01:09;;;;;;;6.00;4.15;;;16.00;99.90;;;;;;5052954;28;20604;-47
2023/07/27 05:03:34;;;;;;;10.40;4.68;;;16.00;99.90;;;;;;5053988;28;20228;-47
2023/07/27 05:06:00;;;;;;;7.93;4.32;;;16.00;99.90;;;;;;5054717;28;20646;-47
2023/07/27 05:08:25;;;;;;;5.13;4.15;;;16.00;99.90;;;;;;5054466;28;20326;-47
2023/07/27 05:10:51;;;;;;;8.63;3.97;;;16.00;99.90;;;;;;5053797;28;20242;-47
2023/07/27 05:13:17;;;;;;;7.35;4.20;;;15.90;99.90;;;;;;5053864;28;20196;-47
2023/07/27 05:15:43;;;;;;;6.28;3.45;;;15.90;99.90;;;;;;5053820;28;20340;-46
2023/07/27 05:18:09;;;;;;;6.60;4.13;;;15.90;99.90;;;;;;5053927;28;20222;-48
2023/07/27 05:20:35;;;;;;;5.95;3.67;;;15.90;99.90;;;;;;5053801;28;20250;-47
2023/07/27 05:23:00;;;;;;;11.15;4.82;;;15.80;99.90;;;;;;5053717;28;20281;-47
2023/07/27 05:25:26;;;;;;;7.15;4.50;;;15.80;99.90;;;;;;5054213;28;20249;-47
2023/07/27 05:27:51;;;;;;;6.43;4.15;;;15.90;99.90;;;;;;5053670;28;20651;-47
2023/07/27 05:30:17;;;;;;;6.63;4.20;;;15.90;99.90;;;;;;5053601;28;20618;-47
2023/07/27 05:32:43;;;;;;;6.68;3.88;;;15.80;99.90;;;;;;5053652;28;20597;-47
2023/07/27 05:35:08;;;;;;;5.97;3.90;;;15.80;99.90;;;;;;5052619;28;20820;-47
2023/07/27 05:37:34;;;;;;;7.45;3.78;;;15.90;99.90;;;;;;5053514;28;20258;-47
2023/07/27 05:39:59;;;;;;;5.55;3.83;;;15.90;99.90;;;;;;5054120;28;20193;-51
2023/07/27 05:42:25;;;;;;;10.23;5.53;;;15.50;99.90;;;;;;5053838;28;20553;-50
2023/07/27 05:44:50;;;;;;;9.80;3.95;;;15.90;99.90;;;;;;5053365;28;20245;-51
2023/07/27 05:47:17;;;;;;;11.13;3.78;;;16.00;99.90;;;;;;5053254;28;20633;-50
2023/07/27 05:49:42;;;;;;;18.73;8.02;;;15.90;99.90;;;;;;5053231;28;20254;-50
2023/07/27 05:52:08;;;;;;;7.43;4.63;;;15.90;99.90;;;;;;5053129;28;20253;-51
2023/07/27 05:54:33;;;;;;;7.97;4.40;;;16.00;99.90;;;;;;5053121;28;20209;-51
2023/07/27 05:56:59;;;;;;;4.82;3.10;;;16.00;99.90;;;;;;5053574;28;20166;-50
2023/07/27 05:59:24;;;;;;;6.65;3.83;;;16.00;99.90;;;;;;5053083;28;20163;-50
2023/07/27 06:01:50;;;;;;;6.97;4.43;;;16.00;99.90;;;;;;5052930;28;20171;-51
2023/07/27 06:04:16;;;;;;;5.57;3.83;;;16.10;99.90;;;;;;5053084;28;20171;-51
2023/07/27 06:06:45;;;;;;;7.60;3.70;;;16.00;99.90;;;;;;5052891;28;20189;-49
2023/07/27 06:09:10;;;;;;;5.53;3.17;;;16.00;99.90;;;;;;5052858;28;20197;-48
2023/07/27 06:11:36;;;;;;;6.78;4.25;;;16.00;99.90;;;;;;5052689;28;20250;-47
2023/07/27 06:14:02;;;;;;;3.40;2.88;;;16.00;99.90;;;;;;5052612;28;20201;-49
2023/07/27 06:16:28;;;;;;;7.03;4.03;;;16.10;99.90;;;;;;5053351;28;20175;-51
2023/07/27 06:18:53;;;;;;;5.25;3.38;;;16.20;99.90;;;;;;5052654;28;20167;-50
2023/07/27 06:21:19;;;;;;;6.43;3.90;;;16.00;99.90;;;;;;5052651;28;20819;-51
2023/07/27 06:23:44;;;;;;;6.20;3.80;;;16.00;99.90;;;;;;5052612;28;20170;-50
2023/07/27 06:26:10;;;;;;;11.40;5.22;;;16.20;99.90;;;;;;5052620;28;20158;-51
2023/07/27 06:28:36;;;;;;;6.10;3.40;;;16.10;99.90;;;;;;5051476;28;20178;-50
2023/07/27 06:31:02;;;;;;;6.07;3.30;;;16.20;99.90;;;;;;5052392;28;20245;-47
2023/07/27 06:33:28;;;;;;;4.55;3.03;;;16.10;99.90;;;;;;5052907;28;20162;-47
2023/07/27 06:35:53;;;;;;;4.13;3.13;;;16.10;99.90;;;;;;5052531;28;20579;-47
2023/07/27 06:38:19;;;;;;;4.55;3.22;;;16.10;99.90;;;;;;5052247;28;20171;-47
2023/07/27 06:40:44;;;;;;;4.38;2.83;;;16.20;99.90;;;;;;5052289;28;20175;-48
2023/07/27 06:43:10;;;;;;;3.97;2.70;;;16.10;99.90;;;;;;5052399;28;20159;-48
2023/07/27 06:45:36;;;;;;;3.03;2.70;;;16.20;99.90;;;;;;5052190;28;20178;-47
2023/07/27 06:48:02;;;;;;;8.52;3.28;;;16.20;99.90;;;;;;5051085;28;20178;-47
2023/07/27 06:50:28;;;;;;;4.32;3.05;;;16.30;99.90;;;;;;5052660;28;20166;-47
2023/07/27 06:52:53;;;;;;;5.25;2.80;;;16.40;99.90;;;;;;5050736;28;20175;-47
2023/07/27 06:55:19;;;;;;;6.55;3.38;;;16.40;99.90;;;;;;5051861;28;20712;-47
2023/07/27 06:57:44;;;;;;;3.22;2.65;;;16.40;99.90;;;;;;5052218;28;20178;-47
2023/07/27 07:00:11;;;;;;;4.95;2.63;;;16.50;99.90;;;;;;5052052;28;20209;-47
2023/07/27 07:02:36;;;;;;;6.68;2.90;;;16.50;99.90;;;;;;5050691;28;20163;-47
2023/07/27 07:05:02;;;;;;;5.85;3.05;;;16.50;99.90;;;;;;5051881;28;20171;-46
2023/07/27 07:07:28;;;;;;;5.93;2.88;;;16.50;99.90;;;;;;5052500;28;20167;-47
2023/07/27 07:09:54;;;;;;;4.45;2.35;;;16.60;99.90;;;;;;5051803;28;20166;-47
2023/07/27 07:12:19;;;;;;;3.30;2.40;;;16.70;99.90;;;;;;5051646;28;20219;-47
2023/07/27 07:14:46;;;;;;;4.20;2.00;;;16.60;99.90;;;;;;5051855;28;20348;-48
2023/07/27 07:17:12;;;;;;;4.43;2.55;;;16.70;99.90;;;;;;5051614;28;20257;-47
2023/07/27 07:19:38;;;;;;;4.40;2.80;;;16.80;99.90;;;;;;5051658;28;20236;-46
2023/07/27 07:22:04;;;;;;;4.15;2.50;;;16.70;99.90;;;;;;5051929;28;20181;-47
2023/07/27 07:24:29;;;;;;;5.05;2.42;;;16.90;99.90;;;;;;5051808;28;20241;-47
2023/07/27 07:26:55;;;;;;;2.80;2.30;;;16.90;99.90;;;;;;5052027;28;20194;-47
2023/07/27 07:29:21;;;;;;;4.40;2.63;;;16.90;99.90;;;;;;5050543;28;20217;-47
2023/07/27 07:31:47;;;;;;;4.68;2.58;;;16.80;99.90;;;;;;5051461;28;20173;-47
2023/07/27 07:34:13;;;;;;;3.00;2.13;;;16.80;99.90;;;;;;5051318;28;20242;-47
2023/07/27 07:36:39;;;;;;;4.68;2.30;;;16.80;99.90;;;;;;5051420;28;20170;-47
2023/07/27 07:39:04;;;;;;;2.38;2.10;;;16.80;99.90;;;;;;5051433;28;20162;-47
2023/07/27 07:41:30;;;;;;;2.78;2.15;;;16.90;99.90;;;;;;5051306;28;20167;-48
2023/07/27 07:43:55;;;;;;;3.95;2.13;;;16.90;99.90;;;;;;5051707;28;20240;-47
2023/07/27 07:46:21;;;;;;;2.80;1.80;;;16.90;99.90;;;;;;5051364;28;20204;-47
2023/07/27 07:48:47;;;;;;;3.38;1.77;;;16.80;99.90;;;;;;5051273;28;20254;-47
2023/07/27 07:51:14;;;;;;;2.90;2.35;;;16.90;99.90;;;;;;5051309;28;20261;-47
2023/07/27 07:53:40;;;;;;;3.80;2.17;;;16.90;99.90;;;;;;5050003;28;20261;-47
2023/07/27 07:56:12;;;;;;;3.88;2.05;;;16.90;99.90;;;;;;5049909;28;20185;-47
2023/07/27 07:58:37;;;;;;;2.50;1.88;;;17.10;99.90;;;;;;5053237;28;20276;-47
2023/07/27 08:01:03;;;;;;;2.53;1.95;;;17.00;99.90;;;;;;5055275;28;20645;-47
2023/07/27 08:03:29;;;;;;;2.63;1.88;;;17.00;99.90;;;;;;5055724;28;20173;-47
2023/07/27 08:05:54;;;;;;;4.20;2.03;;;17.10;99.90;;;;;;5055614;28;20281;-50
2023/07/27 08:08:20;;;;;;;4.00;2.40;;;17.00;99.90;;;;;;5055069;28;20171;-46
2023/07/27 08:10:45;;;;;;;4.75;2.10;;;17.20;99.90;;;;;;5054994;28;20527;-47
2023/07/27 08:13:11;;;;;;;3.53;2.25;;;17.10;99.90;;;;;;5054876;28;20222;-47
2023/07/27 08:15:37;;;;;;;5.25;2.30;;;17.10;99.90;;;;;;5055135;28;20245;-47
2023/07/27 08:18:02;;;;;;;6.60;2.28;;;17.30;99.90;;;;;;5055119;28;20252;-48
2023/07/27 08:20:29;;;;;;;5.47;2.10;;;17.30;99.90;;;;;;5055172;28;20646;-47
2023/07/27 08:22:54;;;;;;;4.68;2.05;;;17.20;99.90;;;;;;5055255;28;20197;-47
2023/07/27 08:25:21;;;;;;;4.82;2.78;;;17.30;99.90;;;;;;5054086;28;20167;-47
2023/07/27 08:27:47;;;;;;;4.30;2.20;;;17.40;99.90;;;;;;5054741;28;20163;-49
2023/07/27 08:30:13;;;;;;;4.63;2.30;;;17.30;99.90;;;;;;5054431;28;20163;-48
2023/07/27 08:32:40;;;;;;;3.92;2.35;;;17.30;99.90;;;;;;5054463;28;20174;-51
2023/07/27 08:35:06;;;;;;;2.30;2.03;;;17.50;99.90;;;;;;5054242;28;20662;-46
2023/07/27 08:37:31;;;;;;;3.92;1.88;;;17.40;99.90;;;;;;5053165;28;20174;-47
2023/07/27 08:39:58;;;;;;;3.17;2.17;;;17.40;99.90;;;;;;5054532;28;20171;-47
2023/07/27 08:42:24;;;;;;;2.55;2.00;;;17.50;99.90;;;;;;5052978;28;20159;-47
2023/07/27 08:44:49;;;;;;;3.65;2.53;;;17.50;99.90;;;;;;5054200;28;20177;-46
2023/07/27 08:47:16;;;;;;;3.22;2.47;;;17.50;99.90;;;;;;5054214;28;20637;-47
2023/07/27 08:49:43;;;;;;;5.78;2.67;;;17.50;99.90;;;;;;5054413;28;20166;-46
2023/07/27 08:52:12;;;;;;;4.57;3.65;;;17.50;99.90;;;;;;5054172;28;20194;-46
2023/07/27 08:54:37;;;;;;;5.85;3.00;;;17.60;99.90;;;;;;5053635;28;20213;-46
2023/07/27 08:57:03;;;;;;;5.97;3.05;;;17.60;99.90;;;;;;5054034;28;20250;-48
2023/07/27 08:59:29;;;;;;;4.65;3.53;;;17.60;99.90;;;;;;5054620;28;20264;-47
2023/07/27 09:01:55;;;;;;;4.90;3.55;;;17.60;99.90;;;;;;5054264;28;20626;-47
2023/07/27 09:04:20;;;;;;;6.22;4.10;;;17.70;99.90;;;;;;5054040;28;20273;-46
2023/07/27 09:06:49;;;;;;;6.97;4.60;;;17.80;99.90;;;;;;5053775;28;20171;-47
2023/07/27 09:09:15;;;;;;;8.15;4.90;;;17.70;99.90;;;;;;5052672;28;20638;-46
2023/07/27 09:11:42;;;;;;;8.20;5.35;;;17.90;99.90;;;;;;5053162;28;20222;-46
2023/07/27 09:14:08;;;;;;;8.32;4.75;;;17.80;99.90;;;;;;5052351;28;20202;-46
2023/07/27 09:16:35;;;;;;;4.53;3.85;;;17.80;99.90;;;;;;5053824;28;20266;-51
2023/07/27 09:19:02;;;;;;;3.65;2.70;;;17.70;99.90;;;;;;5053683;28;20190;-50
2023/07/27 09:21:38;;;;;;;4.53;1.85;;;17.80;99.90;;;;;;5054001;28;20179;-49
2023/07/27 09:24:17;;;;;;;3.47;1.60;;;17.80;99.90;;;;;;5053391;28;20162;-46
2023/07/27 09:26:53;;;;;;;2.75;1.55;;;17.70;99.90;;;;;;5053473;28;20249;-46
2023/07/27 09:29:25;;;;;;;2.90;1.70;;;17.70;99.90;;;;;;5053395;28;20195;-46
2023/07/27 09:31:54;;;;;;;3.28;1.90;;;17.90;99.90;;;;;;5053499;28;20654;-46
2023/07/27 09:34:21;;;;;;;1.90;1.70;;;17.90;99.90;;;;;;5053237;28;20288;-46
2023/07/27 09:36:47;;;;;;;2.15;1.90;;;18.00;99.90;;;;;;5053269;28;20170;-48
2023/07/27 09:39:15;;;;;;;3.70;2.55;;;18.00;99.90;;;;;;5053196;28;20601;-50
2023/07/27 09:41:44;;;;;;;3.83;1.98;;;18.10;99.90;;;;;;5053107;28;20212;-51
2023/07/27 09:44:16;;;;;;;3.10;2.08;;;18.10;99.90;;;;;;5053425;28;20168;-48
2023/07/27 09:46:44;;;;;;;3.35;2.00;;;18.20;99.90;;;;;;5053158;28;20189;-49
2023/07/27 09:49:11;;;;;;;4.70;1.90;;;18.20;99.90;;;;;;5053076;28;20699;-46
2023/07/27 09:51:38;;;;;;;2.40;2.20;;;18.20;99.90;;;;;;5053062;28;20170;-49
2023/07/27 09:54:06;;;;;;;1.80;1.70;;;18.30;99.90;;;;;;5051762;28;20206;-47
2023/07/27 09:56:33;;;;;;;3.67;2.42;;;18.30;99.90;;;;;;5053231;28;20312;-51
2023/07/27 09:58:59;;;;;;;2.53;2.25;;;18.30;99.90;;;;;;5052847;28;20163;-46
2023/07/27 10:01:26;;;;;;;3.75;2.30;;;18.20;99.90;;;;;;5053449;28;20185;-51
2023/07/27 10:03:58;;;;;;;4.85;2.50;;;18.20;99.90;;;;;;5052757;28;20644;-47
2023/07/27 10:06:25;;;;;;;3.30;2.03;;;18.20;99.90;;;;;;5053195;28;20173;-46
2023/07/27 10:08:52;;;;;;;3.47;1.98;;;18.20;99.90;;;;;;5052747;28;20167;-46
2023/07/27 10:11:26;;;;;;;2.53;2.03;;;18.20;99.90;;;;;;5052565;28;20238;-46
2023/07/27 10:13:52;;;;;;;2.10;1.90;;;18.20;99.90;;;;;;5052546;28;20195;-46
2023/07/27 10:16:22;;;;;;;2.30;1.45;;;18.30;99.90;;;;;;5052794;28;20248;-46
2023/07/27 10:18:52;;;;;;;2.20;2.00;;;18.30;99.90;;;;;;5052470;28;20170;-46
2023/07/27 10:21:26;;;;;;;2.40;1.85;;;18.60;99.90;;;;;;5051852;28;20710;-46
2023/07/27 10:24:00;;;;;;;3.80;1.70;;;18.60;99.90;;;;;;5052667;28;20178;-46
2023/07/27 10:26:47;;;;;;;4.30;1.52;;;18.80;99.90;;;;;;5052793;28;20183;-47
2023/07/27 10:29:20;;;;;;;4.10;2.08;;;18.80;99.90;;;;;;5052308;28;20167;-46
2023/07/27 10:32:03;;;;;;;2.67;1.60;;;18.60;99.90;;;;;;5052347;28;20691;-47
2023/07/27 10:34:31;;;;;;;4.53;1.70;;;18.60;99.90;;;;;;5052134;28;20341;-51
2023/07/27 10:37:05;;;;;;;2.25;1.50;;;18.60;99.90;;;;;;5052189;28;20217;-48
2023/07/27 10:39:34;;;;;;;5.32;1.60;;;18.70;99.90;;;;;;5052078;28;20171;-50
2023/07/27 10:42:13;;;;;;;1.60;1.35;;;18.90;99.90;;;;;;5052068;28;20181;-52
2023/07/27 10:44:42;;;;;;;4.80;1.60;;;19.00;99.90;;;;;;5052026;28;20175;-51
2023/07/27 10:47:20;;;;;;;2.83;1.70;;;19.20;99.90;;;;;;5051882;28;20372;-52
2023/07/27 10:49:47;;;;;;;4.03;1.33;;;19.40;99.90;;;;;;5051910;28;20165;-52
2023/07/27 10:52:18;;;;;;;1.77;1.67;;;19.30;99.90;;;;;;5051657;28;20509;-50
2023/07/27 10:54:44;;;;;;;2.15;1.75;;;19.40;99.90;;;;;;5051763;28;20209;-52
2023/07/27 10:57:12;;;;;;;3.63;1.75;;;19.40;99.90;;;;;;5051862;28;20161;-51
2023/07/27 10:59:49;;;;;;;6.07;2.08;;;19.50;99.90;;;;;;5050474;28;20199;-51
2023/07/27 11:02:23;;;;;;;2.22;1.48;;;19.50;99.90;;;;;;5051662;28;20167;-52
2023/07/27 11:04:54;;;;;;;5.20;1.70;;;19.50;99.90;;;;;;5051365;28;20225;-52
2023/07/27 11:07:34;;;;;;;3.95;1.70;;;19.50;99.90;;;;;;5051981;28;20174;-52
2023/07/27 11:10:03;;;;;;;1.88;1.50;;;19.50;99.90;;;;;;5051613;28;20194;-51
2023/07/27 11:12:50;;;;;;;2.28;1.58;;;19.30;99.90;;;;;;5050081;28;20708;-46
2023/07/27 11:15:31;;;;;;;1.63;1.33;;;19.40;99.90;;;;;;5051436;28;20561;-46
2023/07/27 11:18:01;;;;;;;2.58;1.70;;;19.20;99.90;;;;;;5051460;28;20166;-51
2023/07/27 11:20:30;;;;;;;2.35;1.63;;;19.20;99.90;;;;;;5051167;28;20201;-47
2023/07/27 11:22:59;;;;;;;1.80;1.60;;;19.00;99.90;;;;;;5051298;28;20258;-46
2023/07/27 11:25:25;;;;;;;3.03;2.00;;;18.90;99.90;;;;;;5051812;28;20159;-48
2023/07/27 11:27:54;;;;;;;1.85;1.75;;;18.90;99.90;;;;;;5050789;28;20220;-51
2023/07/27 11:30:21;;;;;;;3.55;2.10;;;19.10;99.90;;;;;;5051327;28;20167;-51
2023/07/27 11:33:01;;;;;;;2.47;1.92;;;19.10;99.90;;;;;;5050878;28;20166;-46
2023/07/27 11:35:27;;;;;;;2.00;1.77;;;19.30;99.90;;;;;;5050767;28;20255;-46
2023/07/27 11:37:52;;;;;;;5.80;2.05;;;19.20;99.90;;;;;;5051680;28;20245;-46
2023/07/27 11:40:19;;;;;;;2.40;1.85;;;19.20;99.90;;;;;;5051211;28;20166;-48
2023/07/27 11:42:45;;;;;;;2.20;2.00;;;19.30;99.90;;;;;;5051063;28;20169;-46
2023/07/27 11:45:12;;;;;;;7.32;1.77;;;19.30;99.90;;;;;;5051189;28;20249;-46
2023/07/27 11:47:39;;;;;;;2.20;1.45;;;19.40;99.90;;;;;;5051186;28;20570;-46
2023/07/27 11:50:08;;;;;;;1.70;1.60;;;19.40;99.90;;;;;;5050872;28;20253;-46
2023/07/27 11:52:39;;;;;;;2.22;1.67;;;19.40;99.90;;;;;;5051004;28;20212;-46
2023/07/27 11:55:06;;;;;;;2.90;2.10;;;19.40;99.90;;;;;;5051028;28;20198;-46
2023/07/27 11:57:32;;;;;;;2.97;1.60;;;19.40;99.90;;;;;;5051053;28;20162;-50
2023/07/27 12:00:12;;;;;;;1.65;1.55;;;19.50;99.90;;;;;;5049800;28;20261;-46
2023/07/27 12:02:56;;;;;;;1.98;1.75;;;19.60;99.90;;;;;;5050726;28;20154;-46
2023/07/27 12:05:23;;;;;;;1.80;1.67;;;19.60;99.90;;;;;;5051400;28;20190;-48
2023/07/27 12:07:52;;;;;;;2.17;1.50;;;19.60;99.90;;;;;;5050940;28;20658;-46
2023/07/27 12:10:20;;;;;;;2.30;1.50;;;19.60;99.90;;;;;;5050852;28;20163;-48
2023/07/27 12:13:07;;;;;;;1.80;1.40;;;19.70;99.90;;;;;;5050652;28;20218;-47
2023/07/27 12:15:36;;;;;;;2.50;1.40;;;19.70;99.90;;;;;;5050711;28;20284;-48
2023/07/27 12:18:03;;;;;;;3.10;1.50;;;19.80;99.90;;;;;;5050447;28;20175;-49
2023/07/27 12:20:31;;;;;;;1.45;1.33;;;19.70;99.90;;;;;;5049412;28;20171;-47
2023/07/27 12:22:57;;;;;;;1.40;1.30;;;19.60;99.90;;;;;;5050794;28;20171;-47
2023/07/27 12:25:24;;;;;;;1.15;1.00;;;19.60;99.90;;;;;;5049878;28;20512;-47
2023/07/27 12:27:50;;;;;;;2.63;1.50;;;19.50;99.90;;;;;;5051102;28;20195;-46
2023/07/27 12:30:15;;;;;;;1.50;1.25;;;19.50;99.90;;;;;;5050706;28;20661;-49
2023/07/27 12:32:41;;;;;;;1.20;1.10;;;19.60;99.90;;;;;;5050408;28;20224;-48
2023/07/27 12:35:07;;;;;;;3.83;1.13;;;19.70;99.90;;;;;;5050874;28;20209;-52
2023/07/27 12:37:32;;;;;;;3.50;1.40;;;19.70;99.90;;;;;;5050673;28;20177;-52
2023/07/27 12:39:58;;;;;;;2.53;1.40;;;19.70;99.90;;;;;;5050632;28;20178;-51
2023/07/27 12:42:24;;;;;;;1.67;1.20;;;19.80;99.90;;;;;;5051036;28;20175;-52
2023/07/27 12:44:50;;;;;;;4.05;1.10;;;19.90;99.90;;;;;;5052817;28;20618;-52
2023/07/27 12:47:16;;;;;;;1.13;1.13;;;19.90;99.90;;;;;;5054068;28;20170;-47